Baker Lake Airport
CYBK : now visible

Airfield :











YOU CAN JOIN US ON...

 
LOGIN :

Register | Disclaimer

   EN    FR    IT 

 









Legend :    VFR   Marginal VFR   IFR   Intensive IFR   Very Intensive IFR
Visi :
Ceiling :
>= 8 km
>= 3000ft
5 to 8 km
1000 to 3000 ft
1500m to 5 km
500 to 1000 ft
800 to 1500m
200 to 500 ft
< 800m
< 200 ft
Symbols :   Thunderstorms  Fog  Heavy snow  Heavy precipitations  Wind > 20 kt






- Airport Elevation : 59 ft
- IATA code : YBK


CYBK - Baker Lake

CURRENT METAR :
  • 172200Z 32011KT 6SM -SN DRSN FEW030 BKN045 OVC070 M26/M30 A2969 RMK SC2SC4AC2 SLP058

EXPIRED METARs :
  • 172158Z 32012KT 6SM -SN DRSN FEW030 BKN045 OVC070 M26/M30 A2968 RMK SC2SC4AC2 SLP057
  • 172100Z 31009KT 10SM IC DRSN SCT028 OVC040 M26/M30 A2967 RMK SC4SC4 SLP053
  • 172000Z 30016KT 15SM IC DRSN SCT035 OVC045 M26/M30 A2966 RMK SC3SC5 SLP049

TAF TAF CYBK
Valid from the 17 at 18:00 until the 18 at 06:00 UTC


171738Z 1718/1806 30015KT P6SM FEW030 BKN050
TEMPO 1718/1721 5SM IC BLSN BKN050
FM172100 30010KT P6SM -SN SCT020 BKN050
TEMPO 1721/1806 2SM -SN BLSN BKN020 OVC050 RMK NXT FCST BY 180000Z



MET'MAP, your aeronautical weather chart ! - Copyright ORBIFLY December 2007 - Disclaimer

ORBIFLY MET'MAP TEAM :

Programming & Development : Alexandra Zaïnal
Concept & original design : Baudouin d'Aumeries
Assistance for programming : Marc-Olivier Méhu
Technical & hardware support : Manuel Goepfert

Contact : metmap@orbifly.com




SOURCES & CREDITS :

   NOAA       Earth
Advisory